sensor_id;sensor_type;location;lat;lon;timestamp;pressure;altitude;pressure_sealevel;temperature;humidity
52923;BME280;38796;42.702;23.306;2022-10-17T04:50:08;96702.50;;;4.26;94.02
52923;BME280;38796;42.702;23.306;2022-10-17T04:52:09;96696.47;;;4.24;93.58
52923;BME280;38796;42.702;23.306;2022-10-17T04:54:18;96702.72;;;4.20;93.51
52923;BME280;38796;42.702;23.306;2022-10-17T04:56:23;96699.59;;;4.12;93.94
52923;BME280;38796;42.702;23.306;2022-10-17T04:58:22;96703.81;;;4.14;93.73
52923;BME280;38796;42.702;23.306;2022-10-17T05:00:21;96700.53;;;4.31;93.86
52923;BME280;38796;42.702;23.306;2022-10-17T05:02:20;96701.00;;;4.63;92.29
52923;BME280;38796;42.702;23.306;2022-10-17T05:04:19;96703.44;;;4.88;90.17
52923;BME280;38796;42.702;23.306;2022-10-17T05:06:24;96705.31;;;5.25;88.54
52923;BME280;38796;42.702;23.306;2022-10-17T05:09:02;96706.50;;;5.57;85.74
52923;BME280;38796;42.702;23.306;2022-10-17T05:11:01;96711.88;;;5.54;84.85
52923;BME280;38796;42.702;23.306;2022-10-17T05:13:00;96710.41;;;5.67;85.37
52923;BME280;38796;42.702;23.306;2022-10-17T05:15:01;96708.50;;;5.90;83.71
52923;BME280;38796;42.702;23.306;2022-10-17T05:17:01;96712.88;;;5.89;82.93
52923;BME280;38796;42.702;23.306;2022-10-17T05:19:00;96711.75;;;5.76;83.49
52923;BME280;38796;42.702;23.306;2022-10-17T05:21:05;96716.16;;;5.55;84.43
52923;BME280;38796;42.702;23.306;2022-10-17T05:23:05;96731.22;;;5.50;85.13
52923;BME280;38796;42.702;23.306;2022-10-17T05:25:08;96730.22;;;5.52;85.65
52923;BME280;38796;42.702;23.306;2022-10-17T05:27:06;96732.97;;;5.49;85.49
52923;BME280;38796;42.702;23.306;2022-10-17T05:29:05;96724.88;;;5.56;85.87
52923;BME280;38796;42.702;23.306;2022-10-17T05:31:12;96737.16;;;5.53;85.80
52923;BME280;38796;42.702;23.306;2022-10-17T05:33:11;96730.81;;;5.59;85.96
52923;BME280;38796;42.702;23.306;2022-10-17T05:35:09;96734.91;;;5.65;86.02
52923;BME280;38796;42.702;23.306;2022-10-17T05:37:08;96742.03;;;5.61;85.81
52923;BME280;38796;42.702;23.306;2022-10-17T05:39:11;96734.50;;;5.74;85.86
52923;BME280;38796;42.702;23.306;2022-10-17T05:41:10;96730.34;;;5.89;85.55
52923;BME280;38796;42.702;23.306;2022-10-17T05:43:08;96735.97;;;6.00;84.63
52923;BME280;38796;42.702;23.306;2022-10-17T05:45:07;96737.94;;;6.14;84.01
52923;BME280;38796;42.702;23.306;2022-10-17T05:47:06;96736.28;;;6.30;83.47
52923;BME280;38796;42.702;23.306;2022-10-17T05:49:04;96743.56;;;7.13;80.86
52923;BME280;38796;42.702;23.306;2022-10-17T05:51:23;96743.28;;;7.86;76.60
52923;BME280;38796;42.702;23.306;2022-10-17T05:53:23;96738.31;;;8.62;74.79
52923;BME280;38796;42.702;23.306;2022-10-17T05:55:24;96742.63;;;9.09;71.62
52923;BME280;38796;42.702;23.306;2022-10-17T05:57:23;96748.53;;;9.57;69.79
52923;BME280;38796;42.702;23.306;2022-10-17T05:59:24;96754.84;;;9.97;68.44
52923;BME280;38796;42.702;23.306;2022-10-17T06:01:27;96750.34;;;10.96;64.58
52923;BME280;38796;42.702;23.306;2022-10-17T06:03:26;96748.97;;;11.43;62.68
52923;BME280;38796;42.702;23.306;2022-10-17T06:05:24;96748.16;;;12.07;60.38
52923;BME280;38796;42.702;23.306;2022-10-17T06:07:23;96746.13;;;12.60;58.79
52923;BME280;38796;42.702;23.306;2022-10-17T06:09:21;96755.09;;;12.94;57.53
52923;BME280;38796;42.702;23.306;2022-10-17T06:11:24;96750.28;;;12.88;56.30
52923;BME280;38796;42.702;23.306;2022-10-17T06:13:22;96758.56;;;11.83;58.59
52923;BME280;38796;42.702;23.306;2022-10-17T06:15:22;96761.44;;;12.18;57.95
52923;BME280;38796;42.702;23.306;2022-10-17T06:17:27;96758.56;;;11.57;59.72
52923;BME280;38796;42.702;23.306;2022-10-17T06:19:27;96764.09;;;10.87;62.47
52923;BME280;38796;42.702;23.306;2022-10-17T06:21:26;96759.72;;;11.00;61.91
52923;BME280;38796;42.702;23.306;2022-10-17T06:23:33;96766.28;;;10.80;62.51
52923;BME280;38796;42.702;23.306;2022-10-17T06:25:38;96763.44;;;11.11;61.42
52923;BME280;38796;42.702;23.306;2022-10-17T06:27:38;96767.03;;;11.10;61.36
52923;BME280;38796;42.702;23.306;2022-10-17T06:29:36;96774.84;;;11.24;61.29
52923;BME280;38796;42.702;23.306;2022-10-17T06:31:35;96786.28;;;10.97;62.05
52923;BME280;38796;42.702;23.306;2022-10-17T06:33:35;96777.56;;;11.10;61.44
52923;BME280;38796;42.702;23.306;2022-10-17T06:35:34;96781.34;;;11.05;61.35
52923;BME280;38796;42.702;23.306;2022-10-17T06:37:33;96789.84;;;10.69;62.82
52923;BME280;38796;42.702;23.306;2022-10-17T06:39:36;96787.38;;;11.07;61.43
52923;BME280;38796;42.702;23.306;2022-10-17T06:41:40;96791.06;;;11.05;62.21
52923;BME280;38796;42.702;23.306;2022-10-17T06:43:43;96779.81;;;12.32;58.58
52923;BME280;38796;42.702;23.306;2022-10-17T06:46:01;96785.09;;;13.30;55.17
52923;BME280;38796;42.702;23.306;2022-10-17T06:48:03;96776.06;;;13.56;54.42
52923;BME280;38796;42.702;23.306;2022-10-17T06:50:11;96775.56;;;13.51;54.09
52923;BME280;38796;42.702;23.306;2022-10-17T06:52:29;96778.03;;;12.93;55.93
52923;BME280;38796;42.702;23.306;2022-10-17T06:54:47;96778.03;;;12.20;57.92
52923;BME280;38796;42.702;23.306;2022-10-17T06:57:06;96783.84;;;12.12;58.23
52923;BME280;38796;42.702;23.306;2022-10-17T06:59:23;96789.22;;;12.11;58.57
52923;BME280;38796;42.702;23.306;2022-10-17T07:01:30;96782.53;;;12.80;56.27
52923;BME280;38796;42.702;23.306;2022-10-17T07:03:29;96779.88;;;12.80;56.88
52923;BME280;38796;42.702;23.306;2022-10-17T07:05:29;96786.03;;;12.81;56.75
52923;BME280;38796;42.702;23.306;2022-10-17T07:07:29;96785.72;;;13.33;55.18
52923;BME280;38796;42.702;23.306;2022-10-17T07:09:28;96792.28;;;13.04;55.53
52923;BME280;38796;42.702;23.306;2022-10-17T07:11:27;96780.22;;;12.39;57.38
52923;BME280;38796;42.702;23.306;2022-10-17T07:13:25;96782.66;;;12.29;57.86
52923;BME280;38796;42.702;23.306;2022-10-17T07:15:25;96774.56;;;12.19;58.77
52923;BME280;38796;42.702;23.306;2022-10-17T07:17:24;96781.31;;;12.11;58.87
52923;BME280;38796;42.702;23.306;2022-10-17T07:19:23;96777.19;;;12.07;58.76
52923;BME280;38796;42.702;23.306;2022-10-17T07:21:23;96783.00;;;12.12;58.96
52923;BME280;38796;42.702;23.306;2022-10-17T07:23:22;96777.41;;;12.16;59.43
52923;BME280;38796;42.702;23.306;2022-10-17T07:25:21;96777.66;;;12.50;58.80
52923;BME280;38796;42.702;23.306;2022-10-17T07:27:23;96780.63;;;12.82;57.88
52923;BME280;38796;42.702;23.306;2022-10-17T07:29:23;96783.59;;;13.02;56.51
52923;BME280;38796;42.702;23.306;2022-10-17T07:31:38;96785.09;;;13.06;56.21
52923;BME280;38796;42.702;23.306;2022-10-17T07:33:37;96791.78;;;12.98;56.23
52923;BME280;38796;42.702;23.306;2022-10-17T07:35:37;96794.69;;;12.83;56.87
52923;BME280;38796;42.702;23.306;2022-10-17T07:37:37;96784.06;;;12.95;56.68
52923;BME280;38796;42.702;23.306;2022-10-17T07:39:37;96784.41;;;13.74;54.09
52923;BME280;38796;42.702;23.306;2022-10-17T07:41:36;96791.41;;;13.98;53.39
52923;BME280;38796;42.702;23.306;2022-10-17T07:43:35;96789.03;;;14.17;52.86
52923;BME280;38796;42.702;23.306;2022-10-17T07:45:36;96792.03;;;14.01;53.59
52923;BME280;38796;42.702;23.306;2022-10-17T07:47:36;96782.50;;;13.87;53.66
52923;BME280;38796;42.702;23.306;2022-10-17T07:49:36;96789.28;;;14.70;51.96
52923;BME280;38796;42.702;23.306;2022-10-17T07:51:38;96786.41;;;15.49;50.06
52923;BME280;38796;42.702;23.306;2022-10-17T07:53:38;96787.56;;;15.67;48.70
52923;BME280;38796;42.702;23.306;2022-10-17T07:55:41;96785.88;;;14.90;49.85
52923;BME280;38796;42.702;23.306;2022-10-17T07:57:40;96786.53;;;15.15;49.53
52923;BME280;38796;42.702;23.306;2022-10-17T07:59:39;96778.91;;;14.67;50.38
52923;BME280;38796;42.702;23.306;2022-10-17T08:01:37;96783.84;;;14.49;51.80
52923;BME280;38796;42.702;23.306;2022-10-17T08:03:37;96793.88;;;14.79;50.80
52923;BME280;38796;42.702;23.306;2022-10-17T08:05:35;96782.25;;;15.88;48.31
52923;BME280;38796;42.702;23.306;2022-10-17T08:07:33;96778.28;;;16.65;46.46
52923;BME280;38796;42.702;23.306;2022-10-17T08:09:31;96769.13;;;16.98;45.26
52923;BME280;38796;42.702;23.306;2022-10-17T08:11:30;96777.03;;;17.19;44.26
52923;BME280;38796;42.702;23.306;2022-10-17T08:13:28;96774.94;;;17.32;44.00
52923;BME280;38796;42.702;23.306;2022-10-17T08:15:26;96775.34;;;17.66;43.40
52923;BME280;38796;42.702;23.306;2022-10-17T08:17:28;96774.78;;;17.92;42.38
52923;BME280;38796;42.702;23.306;2022-10-17T08:19:27;96761.63;;;17.32;43.61
52923;BME280;38796;42.702;23.306;2022-10-17T08:21:26;96762.06;;;17.27;44.05
52923;BME280;38796;42.702;23.306;2022-10-17T08:23:24;96754.91;;;17.28;44.15
52923;BME280;38796;42.702;23.306;2022-10-17T08:25:22;96762.94;;;16.78;45.86
52923;BME280;38796;42.702;23.306;2022-10-17T08:27:21;96759.72;;;16.74;45.51
52923;BME280;38796;42.702;23.306;2022-10-17T08:29:21;96762.16;;;16.97;44.32
52923;BME280;38796;42.702;23.306;2022-10-17T08:31:20;96758.81;;;17.14;43.59
52923;BME280;38796;42.702;23.306;2022-10-17T08:33:19;96750.13;;;17.61;43.37
52923;BME280;38796;42.702;23.306;2022-10-17T08:35:18;96747.97;;;18.68;41.60
52923;BME280;38796;42.702;23.306;2022-10-17T08:37:18;96741.38;;;19.53;39.27
52923;BME280;38796;42.702;23.306;2022-10-17T08:39:16;96744.28;;;19.78;38.05
52923;BME280;38796;42.702;23.306;2022-10-17T08:41:36;96749.88;;;18.58;40.26
52923;BME280;38796;42.702;23.306;2022-10-17T08:43:47;96751.75;;;18.75;39.94
52923;BME280;38796;42.702;23.306;2022-10-17T08:45:51;96749.78;;;19.05;39.57
52923;BME280;38796;42.702;23.306;2022-10-17T08:47:53;96750.91;;;18.47;39.40
52923;BME280;38796;42.702;23.306;2022-10-17T08:49:56;96758.78;;;17.72;42.13
52923;BME280;38796;42.702;23.306;2022-10-17T08:52:01;96760.75;;;17.99;40.55
52923;BME280;38796;42.702;23.306;2022-10-17T08:54:04;96759.25;;;17.39;41.82
52923;BME280;38796;42.702;23.306;2022-10-17T08:56:06;96755.28;;;17.72;40.51
52923;BME280;38796;42.702;23.306;2022-10-17T08:58:22;96754.56;;;17.99;39.99
52923;BME280;38796;42.702;23.306;2022-10-17T09:00:22;96757.25;;;17.89;39.84
52923;BME280;38796;42.702;23.306;2022-10-17T09:02:38;96756.94;;;18.12;40.30
52923;BME280;38796;42.702;23.306;2022-10-17T09:04:53;96750.94;;;18.75;34.56
52923;BME280;38796;42.702;23.306;2022-10-17T09:07:04;96757.63;;;18.51;33.38
52923;BME280;38796;42.702;23.306;2022-10-17T09:09:15;96758.09;;;19.55;34.46
52923;BME280;38796;42.702;23.306;2022-10-17T09:11:31;96752.38;;;20.38;34.06
52923;BME280;38796;42.702;23.306;2022-10-17T09:13:42;96748.22;;;21.53;30.25
52923;BME280;38796;42.702;23.306;2022-10-17T09:18:10;96751.84;;;23.52;26.27
52923;BME280;38796;42.702;23.306;2022-10-17T09:20:17;96746.22;;;24.37;25.64
52923;BME280;38796;42.702;23.306;2022-10-17T09:22:22;96738.53;;;24.93;24.39
52923;BME280;38796;42.702;23.306;2022-10-17T09:24:29;96744.09;;;24.91;24.81
52923;BME280;38796;42.702;23.306;2022-10-17T09:26:30;96743.84;;;25.37;25.13
52923;BME280;38796;42.702;23.306;2022-10-17T09:28:31;96731.66;;;25.84;24.75
52923;BME280;38796;42.702;23.306;2022-10-17T09:30:35;96741.16;;;26.58;24.19
52923;BME280;38796;42.702;23.306;2022-10-17T09:32:41;96730.66;;;27.24;23.48
52923;BME280;38796;42.702;23.306;2022-10-17T09:34:40;96735.75;;;27.67;22.49
52923;BME280;38796;42.702;23.306;2022-10-17T09:36:39;96732.44;;;28.18;21.72
52923;BME280;38796;42.702;23.306;2022-10-17T09:38:41;96733.88;;;28.34;21.83
52923;BME280;38796;42.702;23.306;2022-10-17T09:40:40;96729.31;;;28.35;21.80
52923;BME280;38796;42.702;23.306;2022-10-17T09:42:38;96726.22;;;27.85;22.03
52923;BME280;38796;42.702;23.306;2022-10-17T09:44:41;96725.88;;;28.86;20.66
52923;BME280;38796;42.702;23.306;2022-10-17T09:46:56;96730.16;;;28.09;20.49
52923;BME280;38796;42.702;23.306;2022-10-17T09:49:00;96733.94;;;26.09;22.08
52923;BME280;38796;42.702;23.306;2022-10-17T09:51:01;96726.41;;;27.02;21.73
52923;BME280;38796;42.702;23.306;2022-10-17T09:53:21;96725.34;;;27.71;20.94
52923;BME280;38796;42.702;23.306;2022-10-17T09:55:28;96718.50;;;28.28;20.48
52923;BME280;38796;42.702;23.306;2022-10-17T09:57:53;96722.47;;;27.86;19.86
52923;BME280;38796;42.702;23.306;2022-10-17T09:59:56;96716.81;;;28.40;20.08
52923;BME280;38796;42.702;23.306;2022-10-17T10:02:07;96715.38;;;27.91;20.15
52923;BME280;38796;42.702;23.306;2022-10-17T10:04:10;96710.72;;;28.65;20.05
52923;BME280;38796;42.702;23.306;2022-10-17T10:06:13;96713.50;;;27.98;20.88
52923;BME280;38796;42.702;23.306;2022-10-17T10:08:15;96704.00;;;28.81;20.50
52923;BME280;38796;42.702;23.306;2022-10-17T10:10:25;96708.34;;;29.72;18.15
52923;BME280;38796;42.702;23.306;2022-10-17T10:12:30;96705.66;;;30.22;18.11
52923;BME280;38796;42.702;23.306;2022-10-17T10:14:31;96705.38;;;30.05;17.69
52923;BME280;38796;42.702;23.306;2022-10-17T10:16:31;96702.69;;;29.41;18.11
52923;BME280;38796;42.702;23.306;2022-10-17T10:18:32;96705.78;;;28.29;19.02
52923;BME280;38796;42.702;23.306;2022-10-17T10:20:33;96690.88;;;28.78;18.21
52923;BME280;38796;42.702;23.306;2022-10-17T10:22:32;96698.63;;;28.67;18.60
52923;BME280;38796;42.702;23.306;2022-10-17T10:24:31;96697.88;;;27.94;17.55
52923;BME280;38796;42.702;23.306;2022-10-17T10:26:34;96693.53;;;27.93;16.98
52923;BME280;38796;42.702;23.306;2022-10-17T10:28:35;96692.06;;;28.10;17.10
52923;BME280;38796;42.702;23.306;2022-10-17T10:30:34;96682.84;;;28.38;16.87
52923;BME280;38796;42.702;23.306;2022-10-17T10:32:36;96685.78;;;28.94;16.29
52923;BME280;38796;42.702;23.306;2022-10-17T10:34:36;96686.00;;;28.21;16.27
52923;BME280;38796;42.702;23.306;2022-10-17T10:36:45;96677.97;;;27.07;17.41
52923;BME280;38796;42.702;23.306;2022-10-17T10:38:51;96675.91;;;27.09;17.45
52923;BME280;38796;42.702;23.306;2022-10-17T10:40:53;96681.94;;;25.94;18.48
52923;BME280;38796;42.702;23.306;2022-10-17T10:42:55;96684.09;;;23.56;21.11
52923;BME280;38796;42.702;23.306;2022-10-17T10:45:03;96683.38;;;21.33;23.45
52923;BME280;38796;42.702;23.306;2022-10-17T10:47:14;96689.44;;;20.26;25.33
52923;BME280;38796;42.702;23.306;2022-10-17T10:49:28;96687.84;;;19.37;26.96
52923;BME280;38796;42.702;23.306;2022-10-17T10:51:30;96686.78;;;19.12;27.60
52923;BME280;38796;42.702;23.306;2022-10-17T10:53:40;96676.50;;;18.71;28.25
52923;BME280;38796;42.702;23.306;2022-10-17T10:55:44;96685.75;;;18.49;29.22
52923;BME280;38796;42.702;23.306;2022-10-17T10:57:46;96687.13;;;18.26;29.41
52923;BME280;38796;42.702;23.306;2022-10-17T10:59:53;96673.03;;;18.06;30.20
52923;BME280;38796;42.702;23.306;2022-10-17T11:01:58;96673.72;;;18.18;30.49
52923;BME280;38796;42.702;23.306;2022-10-17T11:04:11;96675.69;;;18.16;30.36
52923;BME280;38796;42.702;23.306;2022-10-17T11:06:14;96668.91;;;17.94;29.63
52923;BME280;38796;42.702;23.306;2022-10-17T11:08:23;96658.41;;;17.92;29.73
52923;BME280;38796;42.702;23.306;2022-10-17T11:10:29;96668.41;;;18.08;29.77
52923;BME280;38796;42.702;23.306;2022-10-17T11:12:33;96662.81;;;18.01;30.24
52923;BME280;38796;42.702;23.306;2022-10-17T11:14:41;96665.88;;;18.07;29.28
52923;BME280;38796;42.702;23.306;2022-10-17T11:16:48;96662.19;;;18.17;30.85
52923;BME280;38796;42.702;23.306;2022-10-17T11:18:54;96661.03;;;18.30;29.20
52923;BME280;38796;42.702;23.306;2022-10-17T11:20:58;96664.75;;;18.09;26.41
52923;BME280;38796;42.702;23.306;2022-10-17T11:23:03;96660.44;;;17.98;27.53
52923;BME280;38796;42.702;23.306;2022-10-17T11:25:18;96649.19;;;18.14;27.14
52923;BME280;38796;42.702;23.306;2022-10-17T11:27:18;96651.53;;;18.17;27.51
52923;BME280;38796;42.702;23.306;2022-10-17T11:29:23;96644.03;;;18.31;27.71
52923;BME280;38796;42.702;23.306;2022-10-17T11:31:26;96647.47;;;18.41;27.70
52923;BME280;38796;42.702;23.306;2022-10-17T11:33:35;96657.34;;;18.31;27.71
52923;BME280;38796;42.702;23.306;2022-10-17T11:35:42;96654.06;;;18.19;27.41
52923;BME280;38796;42.702;23.306;2022-10-17T11:37:46;96661.81;;;18.12;27.65
52923;BME280;38796;42.702;23.306;2022-10-17T11:39:52;96653.09;;;18.10;27.41
52923;BME280;38796;42.702;23.306;2022-10-17T11:41:53;96654.09;;;18.09;28.43
52923;BME280;38796;42.702;23.306;2022-10-17T11:44:00;96647.09;;;18.08;28.28
52923;BME280;38796;42.702;23.306;2022-10-17T11:46:05;96639.94;;;18.09;28.50
52923;BME280;38796;42.702;23.306;2022-10-17T11:48:13;96646.09;;;17.82;28.34
52923;BME280;38796;42.702;23.306;2022-10-17T11:50:23;96643.72;;;17.79;28.53
52923;BME280;38796;42.702;23.306;2022-10-17T11:52:47;96639.06;;;17.81;28.67
52923;BME280;38796;42.702;23.306;2022-10-17T11:54:56;96635.72;;;17.79;29.01
52923;BME280;38796;42.702;23.306;2022-10-17T11:57:07;96642.81;;;17.88;29.18
52923;BME280;38796;42.702;23.306;2022-10-17T11:59:42;96641.16;;;17.87;29.05
52923;BME280;38796;42.702;23.306;2022-10-17T12:01:47;96622.22;;;17.90;29.32
52923;BME280;38796;42.702;23.306;2022-10-17T12:03:59;96616.31;;;17.96;29.42
52923;BME280;38796;42.702;23.306;2022-10-17T12:06:08;96620.97;;;18.12;30.61
52923;BME280;38796;42.702;23.306;2022-10-17T12:08:17;96621.25;;;18.18;30.40
52923;BME280;38796;42.702;23.306;2022-10-17T12:10:32;96624.00;;;18.27;29.79
52923;BME280;38796;42.702;23.306;2022-10-17T12:12:34;96622.53;;;18.14;28.78
52923;BME280;38796;42.702;23.306;2022-10-17T12:14:37;96621.81;;;18.12;28.72
52923;BME280;38796;42.702;23.306;2022-10-17T12:16:38;96617.47;;;18.11;28.94
52923;BME280;38796;42.702;23.306;2022-10-17T12:18:39;96624.78;;;18.09;28.77
52923;BME280;38796;42.702;23.306;2022-10-17T12:20:38;96626.63;;;17.99;29.32
52923;BME280;38796;42.702;23.306;2022-10-17T12:22:45;96620.22;;;17.92;29.09
52923;BME280;38796;42.702;23.306;2022-10-17T12:24:54;96620.38;;;17.90;29.44
52923;BME280;38796;42.702;23.306;2022-10-17T12:26:53;96616.06;;;17.80;30.15
52923;BME280;38796;42.702;23.306;2022-10-17T12:28:52;96615.50;;;17.86;29.98
52923;BME280;38796;42.702;23.306;2022-10-17T12:30:54;96611.13;;;17.85;30.07
52923;BME280;38796;42.702;23.306;2022-10-17T12:33:01;96622.75;;;17.93;29.20
52923;BME280;38796;42.702;23.306;2022-10-17T12:35:04;96611.41;;;17.91;28.80
52923;BME280;38796;42.702;23.306;2022-10-17T12:37:02;96610.47;;;17.83;28.58
52923;BME280;38796;42.702;23.306;2022-10-17T12:41:54;96606.34;;;17.88;29.23
52923;BME280;38796;42.702;23.306;2022-10-17T12:43:53;96602.84;;;17.88;29.47
52923;BME280;38796;42.702;23.306;2022-10-17T12:45:52;96607.78;;;17.83;29.64
52923;BME280;38796;42.702;23.306;2022-10-17T12:47:52;96609.38;;;17.75;29.78
52923;BME280;38796;42.702;23.306;2022-10-17T12:49:51;96605.13;;;17.73;30.07
52923;BME280;38796;42.702;23.306;2022-10-17T12:52:27;96608.78;;;17.82;29.96
52923;BME280;38796;42.702;23.306;2022-10-17T12:54:50;96607.78;;;17.83;29.58
52923;BME280;38796;42.702;23.306;2022-10-17T12:57:14;96608.25;;;17.78;29.32
52923;BME280;38796;42.702;23.306;2022-10-17T12:59:17;96601.22;;;17.77;29.50
52923;BME280;38796;42.702;23.306;2022-10-17T13:01:22;96607.78;;;17.83;29.59
52923;BME280;38796;42.702;23.306;2022-10-17T13:03:25;96602.31;;;17.84;29.83
52923;BME280;38796;42.702;23.306;2022-10-17T13:05:27;96599.25;;;17.79;30.77
52923;BME280;38796;42.702;23.306;2022-10-17T13:07:27;96598.41;;;17.79;30.87
52923;BME280;38796;42.702;23.306;2022-10-17T13:09:29;96604.59;;;17.79;30.97
52923;BME280;38796;42.702;23.306;2022-10-17T13:11:30;96600.50;;;17.75;31.27
52923;BME280;38796;42.702;23.306;2022-10-17T13:13:36;96594.22;;;17.76;31.13
52923;BME280;38796;42.702;23.306;2022-10-17T13:15:35;96603.31;;;17.73;31.86
52923;BME280;38796;42.702;23.306;2022-10-17T13:17:34;96603.47;;;17.82;31.29
52923;BME280;38796;42.702;23.306;2022-10-17T13:19:40;96602.31;;;17.84;30.67
52923;BME280;38796;42.702;23.306;2022-10-17T13:21:39;96596.88;;;17.76;31.40
52923;BME280;38796;42.702;23.306;2022-10-17T13:23:46;96600.38;;;17.76;31.86
52923;BME280;38796;42.702;23.306;2022-10-17T13:25:46;96597.13;;;17.73;31.68
52923;BME280;38796;42.702;23.306;2022-10-17T13:27:46;96592.53;;;17.65;31.88
52923;BME280;38796;42.702;23.306;2022-10-17T13:29:45;96595.38;;;17.64;31.70
52923;BME280;38796;42.702;23.306;2022-10-17T13:31:43;96597.88;;;17.65;32.04
52923;BME280;38796;42.702;23.306;2022-10-17T13:33:42;96597.03;;;17.65;32.21
52923;BME280;38796;42.702;23.306;2022-10-17T13:35:40;96598.88;;;17.64;31.75
52923;BME280;38796;42.702;23.306;2022-10-17T13:37:58;96601.66;;;17.63;31.95
52923;BME280;38796;42.702;23.306;2022-10-17T13:39:59;96600.16;;;17.60;31.67
52923;BME280;38796;42.702;23.306;2022-10-17T13:42:23;96601.09;;;17.59;31.87
52923;BME280;38796;42.702;23.306;2022-10-17T13:44:27;96597.22;;;17.53;31.92
52923;BME280;38796;42.702;23.306;2022-10-17T13:46:28;96601.56;;;17.54;32.28
52923;BME280;38796;42.702;23.306;2022-10-17T13:48:36;96602.28;;;17.47;33.06
52923;BME280;38796;42.702;23.306;2022-10-17T13:50:37;96600.28;;;17.49;33.07
52923;BME280;38796;42.702;23.306;2022-10-17T13:52:41;96605.78;;;17.47;33.45
52923;BME280;38796;42.702;23.306;2022-10-17T13:54:40;96600.72;;;17.44;32.85
52923;BME280;38796;42.702;23.306;2022-10-17T13:56:38;96600.19;;;17.41;33.31
52923;BME280;38796;42.702;23.306;2022-10-17T13:58:39;96604.97;;;17.37;33.07
52923;BME280;38796;42.702;23.306;2022-10-17T14:00:40;96603.00;;;17.29;33.03
52923;BME280;38796;42.702;23.306;2022-10-17T14:02:39;96607.94;;;17.24;33.42
52923;BME280;38796;42.702;23.306;2022-10-17T14:04:38;96609.34;;;17.28;35.17
52923;BME280;38796;42.702;23.306;2022-10-17T14:06:57;96611.16;;;17.28;35.20
52923;BME280;38796;42.702;23.306;2022-10-17T14:08:58;96615.34;;;17.30;35.96
52923;BME280;38796;42.702;23.306;2022-10-17T14:10:58;96613.38;;;17.23;36.70
52923;BME280;38796;42.702;23.306;2022-10-17T14:12:57;96614.81;;;17.17;36.78
52923;BME280;38796;42.702;23.306;2022-10-17T14:14:57;96610.44;;;17.16;37.09
52923;BME280;38796;42.702;23.306;2022-10-17T14:17:14;96619.72;;;17.12;37.43
52923;BME280;38796;42.702;23.306;2022-10-17T14:19:22;96617.06;;;17.02;37.70
52923;BME280;38796;42.702;23.306;2022-10-17T14:21:23;96616.53;;;16.99;37.86
52923;BME280;38796;42.702;23.306;2022-10-17T14:23:42;96619.19;;;16.99;38.04
52923;BME280;38796;42.702;23.306;2022-10-17T14:25:41;96622.97;;;16.96;38.21
52923;BME280;38796;42.702;23.306;2022-10-17T14:27:53;96612.44;;;16.95;38.29
52923;BME280;38796;42.702;23.306;2022-10-17T14:29:59;96614.84;;;16.88;38.43
52923;BME280;38796;42.702;23.306;2022-10-17T14:32:02;96605.59;;;16.83;38.95
52923;BME280;38796;42.702;23.306;2022-10-17T14:34:04;96614.56;;;16.81;39.34
52923;BME280;38796;42.702;23.306;2022-10-17T14:36:06;96616.78;;;16.76;39.31
52923;BME280;38796;42.702;23.306;2022-10-17T14:38:06;96618.00;;;16.72;39.67
52923;BME280;38796;42.702;23.306;2022-10-17T14:40:06;96612.84;;;16.71;39.71
52923;BME280;38796;42.702;23.306;2022-10-17T14:42:05;96616.88;;;16.65;40.20
52923;BME280;38796;42.702;23.306;2022-10-17T14:44:06;96616.22;;;16.63;40.15
52923;BME280;38796;42.702;23.306;2022-10-17T14:46:13;96615.91;;;16.56;40.55
52923;BME280;38796;42.702;23.306;2022-10-17T14:48:15;96616.47;;;16.50;40.71
52923;BME280;38796;42.702;23.306;2022-10-17T14:50:26;96628.22;;;16.38;40.81
52923;BME280;38796;42.702;23.306;2022-10-17T14:52:30;96627.59;;;16.25;41.17
52923;BME280;38796;42.702;23.306;2022-10-17T14:54:29;96630.69;;;16.20;41.46
52923;BME280;38796;42.702;23.306;2022-10-17T14:56:35;96635.16;;;16.20;41.61
52923;BME280;38796;42.702;23.306;2022-10-17T14:58:33;96630.66;;;16.10;41.75
52923;BME280;38796;42.702;23.306;2022-10-17T15:00:32;96624.75;;;16.07;41.98
52923;BME280;38796;42.702;23.306;2022-10-17T15:02:30;96634.97;;;16.02;42.43
52923;BME280;38796;42.702;23.306;2022-10-17T15:04:29;96629.34;;;15.95;42.61
52923;BME280;38796;42.702;23.306;2022-10-17T15:06:30;96632.53;;;15.89;42.88
52923;BME280;38796;42.702;23.306;2022-10-17T15:08:30;96630.28;;;15.84;42.75
52923;BME280;38796;42.702;23.306;2022-10-17T15:10:33;96625.50;;;15.78;43.06
52923;BME280;38796;42.702;23.306;2022-10-17T15:12:40;96643.66;;;15.73;43.16
52923;BME280;38796;42.702;23.306;2022-10-17T15:14:57;96639.69;;;15.68;43.50
52923;BME280;38796;42.702;23.306;2022-10-17T15:16:56;96639.34;;;15.61;43.43
52923;BME280;38796;42.702;23.306;2022-10-17T15:18:54;96638.78;;;15.57;43.57
52923;BME280;38796;42.702;23.306;2022-10-17T15:20:52;96649.47;;;15.46;43.99
52923;BME280;38796;42.702;23.306;2022-10-17T15:23:03;96636.75;;;15.40;44.17
52923;BME280;38796;42.702;23.306;2022-10-17T15:25:02;96642.69;;;15.32;44.41
52923;BME280;38796;42.702;23.306;2022-10-17T15:27:00;96639.84;;;15.24;44.87
52923;BME280;38796;42.702;23.306;2022-10-17T15:29:00;96646.78;;;15.16;44.96
52923;BME280;38796;42.702;23.306;2022-10-17T15:31:01;96647.13;;;15.11;44.62
52923;BME280;38796;42.702;23.306;2022-10-17T15:33:01;96649.75;;;15.01;45.33
52923;BME280;38796;42.702;23.306;2022-10-17T15:35:01;96648.31;;;14.97;45.63
52923;BME280;38796;42.702;23.306;2022-10-17T15:37:03;96660.50;;;14.88;45.84
52923;BME280;38796;42.702;23.306;2022-10-17T15:39:06;96654.28;;;14.78;46.15
52923;BME280;38796;42.702;23.306;2022-10-17T15:41:04;96648.53;;;14.73;45.86